createdAt,value
2023-01-17T00:01:10.114Z,2.70
2023-01-17T00:07:06.812Z,2.40
2023-01-17T00:13:02.681Z,2.10
2023-01-17T00:15:44.320Z,2.00
2023-01-17T00:18:33.588Z,1.70
2023-01-17T00:21:18.536Z,1.60
2023-01-17T00:24:10.000Z,1.50
2023-01-17T00:26:51.833Z,1.40
2023-01-17T00:29:40.040Z,1.30
2023-01-17T00:32:15.495Z,1.30
2023-01-17T00:34:54.225Z,1.20
2023-01-17T00:37:39.117Z,1.20
2023-01-17T00:40:23.218Z,1.20
2023-01-17T00:46:40.988Z,1.30
2023-01-17T00:50:55.820Z,1.30
2023-01-17T00:56:41.973Z,1.40
2023-01-17T00:58:12.930Z,1.30
2023-01-17T01:00:54.985Z,1.30
2023-01-17T01:03:27.668Z,1.30
2023-01-17T01:06:09.560Z,1.20
2023-01-17T01:08:56.554Z,1.20
2023-01-17T01:11:33.635Z,1.10
2023-01-17T01:14:09.937Z,1.10
2023-01-17T01:16:54.835Z,1.10
2023-01-17T01:38:57.695Z,0.70
2023-01-17T01:41:38.552Z,0.70
2023-01-17T01:44:51.883Z,0.70
2023-01-17T01:47:38.038Z,0.70
2023-01-17T01:50:24.021Z,0.80
2023-01-17T01:53:02.923Z,0.80
2023-01-17T01:55:41.314Z,0.90
2023-01-17T01:58:37.666Z,1.00
2023-01-17T02:01:22.671Z,1.10
2023-01-17T02:32:08.281Z,1.20
2023-01-17T02:35:15.982Z,1.10
2023-01-17T02:51:09.217Z,0.80
2023-01-17T02:54:23.183Z,0.70
2023-01-17T03:00:25.158Z,0.50
2023-01-17T03:03:34.755Z,0.50
2023-01-17T03:06:20.032Z,0.50
2023-01-17T03:08:58.711Z,0.50
2023-01-17T03:11:28.613Z,0.50
2023-01-17T03:14:12.083Z,0.60
2023-01-17T03:16:47.987Z,0.60
2023-01-17T03:19:33.539Z,0.50
2023-01-17T03:22:05.259Z,0.50
2023-01-17T03:31:34.437Z,0.40
2023-01-17T03:34:01.260Z,0.40
2023-01-17T03:36:30.808Z,0.40
2023-01-17T03:39:06.634Z,0.30
2023-01-17T03:41:42.203Z,0.40
2023-01-17T03:44:08.983Z,0.40
2023-01-17T03:46:38.489Z,0.40
2023-01-17T03:49:22.994Z,0.50
2023-01-17T03:52:04.082Z,0.50
2023-01-17T03:54:48.954Z,0.60
2023-01-17T03:57:34.129Z,0.70
2023-01-17T04:00:19.041Z,0.70
2023-01-17T04:07:04.832Z,0.70
2023-01-17T04:12:56.317Z,0.80
2023-01-17T04:15:34.810Z,0.70
2023-01-17T04:18:02.043Z,0.70
2023-01-17T04:20:39.823Z,0.70
2023-01-17T04:23:12.859Z,0.60
2023-01-17T04:25:57.392Z,0.60
2023-01-17T04:32:43.792Z,0.60
2023-01-17T04:35:12.724Z,0.50
2023-01-17T04:37:57.696Z,0.50
2023-01-17T04:40:30.615Z,0.40
2023-01-17T04:43:08.616Z,0.40
2023-01-17T04:45:47.669Z,0.30
2023-01-17T04:48:28.872Z,0.30
2023-01-17T04:51:18.456Z,0.20
2023-01-17T04:53:52.005Z,0.20
2023-01-17T04:56:22.923Z,0.20
2023-01-17T04:58:58.795Z,0.10
2023-01-17T05:01:31.655Z,0.10
2023-01-17T05:04:10.615Z,0.10
2023-01-17T05:06:58.230Z,0.10
2023-01-17T05:09:36.553Z,0.00
2023-01-17T05:12:15.689Z,0.00
2023-01-17T05:14:53.802Z,0.00
2023-01-17T05:18:11.534Z,0.00
2023-01-17T05:20:47.216Z,0.10
2023-01-17T05:23:26.207Z,0.10
2023-01-17T05:26:08.163Z,0.20
2023-01-17T05:29:24.820Z,0.30
2023-01-17T05:31:52.668Z,0.30
2023-01-17T05:34:31.920Z,0.30
2023-01-17T05:37:18.938Z,0.40
2023-01-17T05:39:57.241Z,0.40
2023-01-17T05:42:36.118Z,0.30
2023-01-17T05:54:11.531Z,0.20
2023-01-17T05:58:54.219Z,0.20
2023-01-17T06:00:49.407Z,0.20
2023-01-17T06:03:31.366Z,0.10
2023-01-17T06:06:04.472Z,0.10
2023-01-17T06:08:38.804Z,0.10
2023-01-17T06:11:20.292Z,0.10
2023-01-17T06:36:25.597Z,-0.30
2023-01-17T06:51:45.408Z,-0.30
2023-01-17T07:00:31.602Z,-0.40
2023-01-17T07:03:48.682Z,-0.40
2023-01-17T07:06:21.502Z,-0.40
2023-01-17T07:12:36.664Z,-0.50
2023-01-17T07:28:20.304Z,-0.50
2023-01-17T07:37:18.981Z,-0.50
2023-01-17T07:39:55.033Z,-0.50
2023-01-17T07:42:36.471Z,-0.50
2023-01-17T07:45:20.900Z,-0.40
2023-01-17T07:48:02.326Z,-0.40
2023-01-17T07:50:43.062Z,-0.40
2023-01-17T07:53:18.518Z,-0.40
2023-01-17T07:56:01.867Z,-0.40
2023-01-17T07:58:32.344Z,-0.40
2023-01-17T08:04:11.028Z,-0.40
2023-01-17T08:06:43.736Z,-0.30
2023-01-17T08:09:22.724Z,-0.30
2023-01-17T08:11:58.439Z,-0.30
2023-01-17T08:14:40.324Z,-0.30
2023-01-17T08:17:18.511Z,-0.30
2023-01-17T08:20:27.478Z,-0.30
2023-01-17T08:23:01.161Z,-0.30
2023-01-17T08:25:36.675Z,-0.30
2023-01-17T08:28:18.392Z,-0.30
2023-01-17T08:30:53.867Z,-0.30
2023-01-17T08:33:32.231Z,-0.30
2023-01-17T08:36:05.229Z,-0.30
2023-01-17T08:39:13.326Z,-0.30
2023-01-17T08:42:02.956Z,-0.30
2023-01-17T08:44:35.590Z,-0.30
2023-01-17T08:47:17.587Z,-0.30
2023-01-17T08:49:52.905Z,-0.30
2023-01-17T08:52:29.073Z,-0.30
2023-01-17T08:55:05.643Z,-0.30
2023-01-17T08:57:41.867Z,-0.30
2023-01-17T09:00:12.530Z,-0.30
2023-01-17T09:02:47.013Z,-0.30
2023-01-17T09:05:15.432Z,-0.30
2023-01-17T09:07:48.921Z,-0.30
2023-01-17T09:10:20.919Z,-0.30
2023-01-17T09:12:59.961Z,-0.30
2023-01-17T09:15:29.909Z,-0.20
2023-01-17T09:18:03.734Z,-0.20
2023-01-17T09:20:34.274Z,-0.10
2023-01-17T09:23:12.909Z,-0.10
2023-01-17T09:26:14.565Z,0.00
2023-01-17T09:28:54.147Z,0.00
2023-01-17T09:31:28.372Z,0.10
2023-01-17T09:34:08.823Z,0.20
2023-01-17T09:36:44.940Z,0.30
2023-01-17T09:39:19.196Z,0.30
2023-01-17T09:44:52.572Z,0.50
2023-01-17T09:47:56.028Z,0.60
2023-01-17T09:53:41.466Z,0.70
2023-01-17T09:56:14.452Z,0.70
2023-01-17T09:59:32.244Z,0.80
2023-01-17T10:10:03.272Z,1.10
2023-01-17T10:16:15.021Z,1.20
2023-01-17T10:23:01.000Z,1.20
2023-01-17T10:25:41.877Z,1.20
2023-01-17T10:28:50.843Z,1.20
2023-01-17T10:35:16.372Z,1.20
2023-01-17T10:37:55.656Z,1.20
2023-01-17T10:40:38.419Z,1.20
2023-01-17T10:43:42.998Z,1.20
2023-01-17T16:24:30.641Z,1.40
2023-01-17T16:27:03.566Z,1.30
2023-01-17T16:29:36.185Z,1.30
2023-01-17T18:15:29.422Z,-0.20
2023-01-17T18:17:56.228Z,-0.30
2023-01-17T18:20:25.274Z,-0.30
2023-01-17T18:22:52.102Z,-0.30
2023-01-17T18:25:18.922Z,-0.30
2023-01-17T18:27:45.760Z,-0.30
2023-01-17T18:30:12.953Z,-0.20
